Time;durP1;ratioP1;P1;durP2;ratioP2;P2;SDS_P1;SDS_P2;PMS_P1;PMS_P2;Temp;Humidity;BMP_temperature;BMP_pressure;BME280_temperature;BME280_humidity;BME280_pressure;Samples;Min_cycle;Max_cycle;Signal;HPM_P1;HPM_P2
2022/04/16 00:01:15;;;;;;;;;3.50;2.75;;;;;18.91;45.75;103158.97;5050779;28;9572;-68
2022/04/16 00:03:41;;;;;;;;;4.00;4.00;;;;;18.91;45.57;103158.97;5052672;28;9499;-68
2022/04/16 00:06:07;;;;;;;;;1.33;1.33;;;;;18.91;45.46;103161.59;5062784;28;9563;-71
2022/04/16 00:08:32;;;;;;;;;2.75;2.75;;;;;18.90;45.39;103152.78;5052834;28;9392;-67
2022/04/16 00:10:57;;;;;;;;;2.75;2.75;;;;;18.90;45.46;103160.72;5052201;28;8764;-68
2022/04/16 00:13:23;;;;;;;;;4.00;2.75;;;;;18.89;45.73;103166.88;5053931;28;8816;-68
2022/04/16 00:15:50;;;;;;;;;2.00;2.00;;;;;18.87;45.54;103165.94;5051591;28;8811;-67
2022/04/16 00:18:16;;;;;;;;;4.50;3.00;;;;;18.88;45.78;103159.78;5050768;28;8956;-67
2022/04/16 00:20:43;;;;;;;;;2.50;2.50;;;;;18.87;45.72;103165.03;5051859;28;9428;-67
2022/04/16 00:23:08;;;;;;;;;2.50;2.25;;;;;18.86;45.58;103168.56;5051649;28;9442;-68
2022/04/16 00:25:34;;;;;;;;;2.75;2.75;;;;;18.86;45.48;103171.22;5051486;28;9411;-69
2022/04/16 00:28:01;;;;;;;;;3.00;3.00;;;;;18.85;45.33;103169.41;5050552;28;8782;-69
2022/04/16 00:30:26;;;;;;;;;2.50;2.00;;;;;18.85;45.40;103170.31;5051345;28;8778;-68
2022/04/16 00:32:57;;;;;;;;;4.00;4.00;;;;;18.85;45.45;103167.66;5050946;28;9456;-69
2022/04/16 00:35:23;;;;;;;;;3.00;3.00;;;;;18.83;45.58;103172.00;5051499;28;8828;-68
2022/04/16 00:37:48;;;;;;;;;3.00;3.00;;;;;18.85;45.36;103164.13;5050076;28;10246;-68
2022/04/16 00:40:14;;;;;;;;;3.00;3.00;;;;;18.82;45.27;103163.16;5051128;28;8829;-69
2022/04/16 00:42:41;;;;;;;;;2.00;2.00;;;;;18.85;45.79;103175.59;5051185;28;8806;-68
2022/04/16 00:45:07;;;;;;;;;2.00;2.00;;;;;18.83;45.49;103175.56;5051229;28;8810;-68
2022/04/16 00:47:32;;;;;;;;;2.00;2.00;;;;;18.83;45.40;103175.56;5050347;28;9559;-68
2022/04/16 00:49:57;;;;;;;;;3.00;3.00;;;;;18.82;45.40;103175.50;5050484;28;8923;-69
2022/04/16 00:52:23;;;;;;;;;1.75;1.50;;;;;18.82;45.58;103172.84;5051233;28;8805;-69
2022/04/16 00:54:50;;;;;;;;;2.00;2.00;;;;;18.82;45.39;103173.75;5050722;28;8817;-68
2022/04/16 00:57:16;;;;;;;;;4.00;4.00;;;;;18.80;45.21;103180.78;5049794;28;8817;-69
2022/04/16 00:59:41;;;;;;;;;2.75;2.75;;;;;18.80;45.33;103174.59;5050235;28;9487;-68
2022/04/16 01:02:09;;;;;;;;;2.50;1.75;;;;;18.79;45.45;103175.44;5050347;28;8810;-69
2022/04/16 01:04:37;;;;;;;;;3.00;3.00;;;;;18.80;45.45;103177.22;5050924;28;8825;-70
2022/04/16 01:07:03;;;;;;;;;3.00;3.00;;;;;18.79;45.20;103172.78;5050818;28;9387;-68
2022/04/16 01:09:29;;;;;;;;;3.25;2.25;;;;;18.79;45.22;103184.28;5049984;28;9621;-69
2022/04/16 01:11:54;;;;;;;;;3.00;3.00;;;;;18.79;45.38;103176.34;5050679;28;8777;-68
2022/04/16 01:14:21;;;;;;;;;2.00;2.00;;;;;18.78;45.22;103182.47;5055373;28;10212;-68
2022/04/16 01:16:47;;;;;;;;;2.50;2.50;;;;;18.78;45.53;103187.75;5057759;28;8795;-68
2022/04/16 01:19:12;;;;;;;;;3.00;2.00;;;;;18.78;45.20;103184.25;5069438;28;9457;-67
2022/04/16 01:21:39;;;;;;;;;4.25;3.00;;;;;18.76;45.59;103178.91;5070543;28;8831;-68
2022/04/16 01:24:05;;;;;;;;;3.50;3.00;;;;;18.79;45.12;103188.66;5071016;28;8957;-67
2022/04/16 01:26:30;;;;;;;;;2.00;2.00;;;;;18.77;45.30;103185.09;5070389;28;9735;-68
2022/04/16 01:28:56;;;;;;;;;2.25;2.25;;;;;18.75;45.16;103185.03;5068842;28;9496;-67
2022/04/16 01:31:21;;;;;;;;;1.00;1.00;;;;;18.75;45.10;103182.41;5070735;28;8806;-68
2022/04/16 01:33:46;;;;;;;;;2.00;2.00;;;;;18.74;44.95;103183.28;5070045;28;8948;-68
2022/04/16 01:36:12;;;;;;;;;1.50;1.50;;;;;18.75;45.32;103190.34;5070127;28;8800;-68
2022/04/16 01:38:37;;;;;;;;;2.50;2.50;;;;;18.73;45.22;103170.91;5069499;28;8800;-68
2022/04/16 01:41:03;;;;;;;;;3.00;3.00;;;;;18.73;45.28;103176.19;5069631;28;8811;-69
2022/04/16 01:43:29;;;;;;;;;2.25;2.25;;;;;18.74;45.10;103180.63;5070397;28;8832;-68
2022/04/16 01:45:55;;;;;;;;;2.25;2.25;;;;;18.75;45.18;103177.09;5070196;28;8814;-69
2022/04/16 01:48:21;;;;;;;;;3.00;3.00;;;;;18.74;44.91;103171.78;5069328;28;8804;-69
2022/04/16 01:50:46;;;;;;;;;2.50;2.50;;;;;18.72;45.10;103165.56;5070237;28;9553;-69
2022/04/16 01:53:12;;;;;;;;;3.00;3.00;;;;;18.73;45.19;103164.69;5070138;28;8791;-68
2022/04/16 01:55:37;;;;;;;;;3.00;2.00;;;;;18.73;44.99;103164.69;5070355;28;8811;-69
2022/04/16 01:58:06;;;;;;;;;4.00;4.00;;;;;18.72;45.02;103166.44;5068669;28;9438;-69
2022/04/16 02:00:33;;;;;;;;;3.00;2.50;;;;;18.71;44.87;103166.41;5070163;28;8764;-69
2022/04/16 02:02:58;;;;;;;;;2.50;2.50;;;;;18.70;44.94;103160.25;5070691;28;10252;-69
2022/04/16 02:05:24;;;;;;;;;2.00;2.00;;;;;18.71;45.07;103174.34;5070351;28;9421;-69
2022/04/16 02:07:50;;;;;;;;;2.50;2.50;;;;;18.69;44.97;103171.69;5074602;28;8831;-69
2022/04/16 02:10:16;;;;;;;;;3.75;3.75;;;;;18.69;45.01;103169.03;5069794;28;8792;-69
2022/04/16 02:12:42;;;;;;;;;1.25;1.25;;;;;18.69;45.01;103173.41;5074230;28;9486;-68
2022/04/16 02:15:08;;;;;;;;;3.00;2.00;;;;;18.69;45.19;103169.03;5071251;28;9413;-68
2022/04/16 02:17:34;;;;;;;;;3.00;3.00;;;;;18.69;44.81;103179.63;5068388;28;8820;-68
2022/04/16 02:20:00;;;;;;;;;3.00;3.00;;;;;18.69;44.93;103181.34;5069730;28;9469;-69
2022/04/16 02:22:25;;;;;;;;;4.25;4.25;;;;;18.67;45.05;103180.44;5069443;28;12173;-68
2022/04/16 02:24:50;;;;;;;;;2.00;2.00;;;;;18.66;44.96;103182.19;5069226;28;8916;-69
2022/04/16 02:27:16;;;;;;;;;3.00;2.00;;;;;18.66;44.88;103183.94;5069933;28;8791;-68
2022/04/16 02:29:42;;;;;;;;;2.00;2.00;;;;;18.66;44.95;103182.19;5067883;28;9511;-68
2022/04/16 02:32:07;;;;;;;;;4.25;2.25;;;;;18.66;45.02;103182.19;5069368;28;9515;-68
2022/04/16 02:34:33;;;;;;;;;4.75;4.75;;;;;18.65;45.03;103182.13;5069959;28;9535;-69
2022/04/16 02:36:58;;;;;;;;;3.00;3.00;;;;;18.64;44.67;103175.94;5068973;28;8783;-68
2022/04/16 02:39:25;;;;;;;;;3.75;3.75;;;;;18.63;45.03;103186.50;5068079;28;8819;-68
2022/04/16 02:41:50;;;;;;;;;3.00;3.00;;;;;18.63;44.63;103179.44;5069748;28;8799;-69
2022/04/16 02:47:05;;;;;;;;;1.00;1.00;;;;;18.60;44.96;103178.47;5068872;28;8856;-68
2022/04/16 02:49:31;;;;;;;;;2.75;2.75;;;;;18.60;45.00;103183.75;5067866;28;9489;-68
2022/04/16 02:51:57;;;;;;;;;2.50;2.50;;;;;18.62;44.62;103187.34;5070890;28;9549;-68
2022/04/16 02:54:25;;;;;;;;;3.00;3.00;;;;;18.60;44.75;103197.88;5070234;28;9605;-68
2022/04/16 02:56:50;;;;;;;;;3.00;3.00;;;;;18.61;44.62;103186.44;5068422;28;8810;-68
2022/04/16 02:59:15;;;;;;;;;2.25;2.25;;;;;18.59;44.70;103189.94;5068292;28;9478;-68
2022/04/16 03:01:41;;;;;;;;;3.00;3.00;;;;;18.57;44.73;103189.88;5069131;28;8898;-68
2022/04/16 03:04:06;;;;;;;;;1.75;1.75;;;;;18.55;44.91;103186.31;5068843;28;8872;-68
2022/04/16 03:06:31;;;;;;;;;2.00;2.00;;;;;18.56;44.73;103181.91;5069172;28;8794;-68
2022/04/16 03:08:56;;;;;;;;;2.00;2.00;;;;;18.55;44.87;103196.88;5069512;28;8787;-68
2022/04/16 03:11:22;;;;;;;;;3.00;3.00;;;;;18.56;44.63;103189.84;5069103;28;8809;-68
2022/04/16 03:13:47;;;;;;;;;2.00;2.00;;;;;18.56;44.44;103195.16;5068619;28;8775;-68
2022/04/16 03:18:56;;;;;;;;;3.00;3.00;;;;;18.54;44.47;103191.53;5067707;28;8736;-68
2022/04/16 03:21:22;;;;;;;;;4.00;4.00;;;;;18.52;44.43;103188.84;5068658;28;10322;-69
2022/04/16 03:23:50;;;;;;;;;2.75;2.75;;;;;18.51;44.75;103188.78;5072689;28;8849;-69
2022/04/16 03:26:16;;;;;;;;;4.25;3.75;;;;;18.53;44.73;103193.28;5072978;28;8818;-68
2022/04/16 03:28:41;;;;;;;;;2.00;2.00;;;;;18.50;44.53;103190.53;5071729;28;9632;-68
2022/04/16 03:31:06;;;;;;;;;2.00;2.00;;;;;18.50;44.42;103193.19;5072534;28;8812;-69
2022/04/16 03:33:32;;;;;;;;;5.00;3.25;;;;;18.49;44.56;103194.03;5073190;28;8791;-68
2022/04/16 03:35:57;;;;;;;;;4.75;4.75;;;;;18.50;44.63;103194.94;5072364;28;8813;-67
2022/04/16 03:38:22;;;;;;;;;3.00;3.00;;;;;18.49;44.55;103204.59;5071296;28;9562;-68
2022/04/16 03:40:48;;;;;;;;;0.00;0.00;;;;;18.49;44.29;103203.72;5072739;28;8803;-68
2022/04/16 03:43:14;;;;;;;;;3.75;3.00;;;;;18.49;44.44;103204.59;5072504;28;8783;-68
2022/04/16 03:45:39;;;;;;;;;4.50;4.00;;;;;18.47;44.35;103203.69;5072233;28;8811;-68
2022/04/16 03:48:07;;;;;;;;;3.75;3.75;;;;;18.47;44.51;103205.44;5071430;28;8814;-68
2022/04/16 03:50:33;;;;;;;;;3.00;3.00;;;;;18.46;44.57;103207.19;5072185;28;8886;-68
2022/04/16 03:52:59;;;;;;;;;2.75;2.00;;;;;18.44;44.58;103200.97;5071799;28;9593;-67
2022/04/16 04:01:00;;;;;;;;;3.50;3.50;;;;;18.44;44.55;103219.47;5071935;28;9241;-67
2022/04/16 04:03:25;;;;;;;;;2.50;2.50;;;;;18.42;44.49;103217.63;5072104;28;9408;-68
2022/04/16 04:05:54;;;;;;;;;3.67;2.67;;;;;18.43;44.13;103222.97;5072214;28;10051;-68
2022/04/16 04:08:21;;;;;;;;;3.00;3.00;;;;;18.42;44.48;103223.81;5070826;28;8814;-67
2022/04/16 04:10:46;;;;;;;;;3.00;3.00;;;;;18.39;44.47;103231.69;5071466;28;9276;-67
2022/04/16 04:13:13;;;;;;;;;3.50;3.00;;;;;18.40;44.34;103230.84;5072071;28;9423;-68
2022/04/16 04:15:39;;;;;;;;;3.25;3.00;;;;;18.40;44.36;103224.63;5071911;28;8922;-67
2022/04/16 04:18:04;;;;;;;;;3.75;3.00;;;;;18.40;44.28;103224.63;5069028;28;9578;-67
2022/04/16 04:20:30;;;;;;;;;4.75;3.50;;;;;18.38;44.08;103231.63;5070810;28;9486;-67
2022/04/16 04:22:55;;;;;;;;;2.00;2.00;;;;;18.37;44.20;103225.44;5070284;28;8962;-67
2022/04/16 04:25:21;;;;;;;;;5.25;4.00;;;;;18.38;44.20;103228.97;5070577;28;8835;-68
2022/04/16 04:27:47;;;;;;;;;3.75;3.00;;;;;18.37;44.21;103233.38;5069242;28;8792;-68
2022/04/16 04:30:12;;;;;;;;;2.50;2.50;;;;;18.39;44.35;103233.41;5070196;28;8816;-67
2022/04/16 04:32:38;;;;;;;;;2.75;2.75;;;;;18.38;43.96;103234.25;5069900;28;8931;-68
2022/04/16 04:35:04;;;;;;;;;3.50;3.50;;;;;18.37;44.36;103241.28;5070159;28;8810;-68
2022/04/16 04:37:29;;;;;;;;;3.50;3.50;;;;;18.35;44.11;103245.66;5069913;28;8810;-68
2022/04/16 04:39:55;;;;;;;;;3.50;3.50;;;;;18.34;44.25;103244.75;5069460;28;9478;-68
2022/04/16 04:42:24;;;;;;;;;3.50;3.50;;;;;18.36;44.16;103258.06;5070541;28;9625;-68
2022/04/16 04:44:49;;;;;;;;;3.00;3.00;;;;;18.33;43.83;103245.63;5069970;28;8826;-68
2022/04/16 04:47:15;;;;;;;;;4.50;4.50;;;;;18.34;44.08;103249.16;5069644;28;9497;-68
2022/04/16 04:49:43;;;;;;;;;4.00;4.00;;;;;18.34;44.18;103250.06;5069194;28;8807;-68
2022/04/16 04:52:09;;;;;;;;;2.50;2.50;;;;;18.33;44.06;103255.31;5069672;28;8856;-68
2022/04/16 04:54:34;;;;;;;;;4.50;3.75;;;;;18.32;44.31;103248.22;5070677;28;9401;-68
2022/04/16 04:56:59;;;;;;;;;4.00;4.00;;;;;18.31;44.06;103247.34;5069956;28;8894;-68
2022/04/16 04:59:24;;;;;;;;;3.75;3.75;;;;;18.32;44.07;103253.53;5068692;28;9604;-68
2022/04/16 05:01:50;;;;;;;;;2.50;2.50;;;;;18.32;43.93;103250.88;5069920;28;9531;-69
2022/04/16 05:04:15;;;;;;;;;3.00;3.00;;;;;18.32;44.17;103251.78;5070100;28;8981;-68
2022/04/16 05:06:40;;;;;;;;;4.50;3.00;;;;;18.32;44.23;103248.22;5069366;28;8817;-68
2022/04/16 05:09:05;;;;;;;;;4.75;4.00;;;;;18.29;43.87;103249.06;5069245;28;8780;-68
2022/04/16 05:11:31;;;;;;;;;2.75;2.75;;;;;18.30;43.87;103248.19;5070463;28;8783;-68
2022/04/16 05:13:56;;;;;;;;;6.00;5.00;;;;;18.29;44.20;103262.28;5069332;28;8784;-69
2022/04/16 05:16:22;;;;;;;;;2.75;2.75;;;;;18.28;44.19;103260.47;5034073;28;1027650;-68
2022/04/16 05:18:47;;;;;;;;;4.50;3.25;;;;;18.29;44.20;103257.00;5070162;28;8790;-68
2022/04/16 05:21:12;;;;;;;;;4.25;4.25;;;;;18.28;43.83;103265.75;5069737;28;8889;-69
2022/04/16 05:23:39;;;;;;;;;7.00;7.00;;;;;18.28;44.15;103271.06;5071158;28;8802;-68
2022/04/16 05:26:05;;;;;;;;;3.50;3.50;;;;;18.28;44.15;103273.69;5070730;28;8800;-68
2022/04/16 05:28:31;;;;;;;;;3.00;3.00;;;;;18.28;43.93;103276.34;5069492;28;9622;-69
2022/04/16 05:30:58;;;;;;;;;3.75;3.00;;;;;18.28;43.96;103278.09;5070256;28;9543;-69
2022/04/16 05:36:08;;;;;;;;;5.00;4.00;;;;;18.26;44.16;103288.59;5070017;28;9614;-69
2022/04/16 05:38:33;;;;;;;;;5.00;5.00;;;;;18.28;44.09;103281.63;5069469;28;10441;-69
2022/04/16 05:40:58;;;;;;;;;4.00;3.25;;;;;18.28;43.95;103293.94;5070342;28;8839;-69
2022/04/16 05:43:24;;;;;;;;;4.25;3.75;;;;;18.28;44.14;103299.25;5070120;28;9662;-68
2022/04/16 05:45:49;;;;;;;;;4.75;3.75;;;;;18.26;44.36;103295.63;5069280;28;8811;-68
2022/04/16 05:48:15;;;;;;;;;4.50;4.50;;;;;18.26;44.16;103298.28;5070284;28;8816;-69
2022/04/16 05:50:41;;;;;;;;;5.75;5.00;;;;;18.27;44.20;103297.44;5070422;28;8784;-68
2022/04/16 05:53:08;;;;;;;;;3.75;3.75;;;;;18.26;44.45;103295.63;5069971;28;8820;-69
2022/04/16 05:55:34;;;;;;;;;5.00;5.00;;;;;18.27;44.16;103297.44;5061541;28;8810;-69
2022/04/16 05:57:59;;;;;;;;;4.50;4.50;;;;;18.26;44.03;103300.94;5068814;28;9701;-68
2022/04/16 06:00:25;;;;;;;;;5.25;4.50;;;;;18.27;44.26;103294.78;5070075;28;8784;-68
2022/04/16 06:02:51;;;;;;;;;5.00;5.00;;;;;18.26;44.21;103303.56;5069813;28;8828;-68
2022/04/16 06:05:16;;;;;;;;;2.75;2.25;;;;;18.23;44.24;103303.50;5070199;28;12191;-68
2022/04/16 06:07:42;;;;;;;;;4.00;3.00;;;;;18.26;44.41;103308.88;5068430;28;8805;-68
2022/04/16 06:10:07;;;;;;;;;7.00;4.50;;;;;18.26;44.47;103315.06;5068039;28;8810;-68
2022/04/16 06:12:33;;;;;;;;;3.75;3.25;;;;;18.26;44.28;103320.34;5069539;28;8794;-68
2022/04/16 06:14:59;;;;;;;;;5.00;4.00;;;;;18.26;44.51;103315.06;5069390;28;8907;-68
2022/04/16 06:17:24;;;;;;;;;3.00;3.00;;;;;18.26;44.84;103314.16;5069389;28;8846;-68
2022/04/16 06:19:49;;;;;;;;;6.50;4.00;;;;;18.25;44.79;103313.28;5068714;28;9475;-68
2022/04/16 06:22:15;;;;;;;;;4.00;4.00;;;;;18.25;44.71;103315.03;5069645;28;8971;-69
2022/04/16 06:24:41;;;;;;;;;2.50;2.50;;;;;18.27;44.68;103324.78;5069876;28;8870;-69
2022/04/16 06:27:07;;;;;;;;;3.00;3.00;;;;;18.27;44.47;103324.78;5069320;28;8818;-69
2022/04/16 06:29:32;;;;;;;;;5.25;4.50;;;;;18.27;44.60;103319.50;5068331;28;9747;-69
2022/04/16 06:31:58;;;;;;;;;3.75;3.75;;;;;18.27;44.50;103323.88;5069255;28;8800;-68
2022/04/16 06:34:23;;;;;;;;;5.00;5.00;;;;;18.27;44.64;103329.19;5069750;28;8798;-68
2022/04/16 06:36:52;;;;;;;;;5.00;5.00;;;;;18.29;44.68;103333.69;5069331;28;8796;-68
2022/04/16 06:39:17;;;;;;;;;5.00;4.00;;;;;18.27;44.84;103331.81;5067740;28;11396;-69
2022/04/16 06:41:42;;;;;;;;;2.00;0.75;;;;;18.30;44.76;103335.44;5069236;28;9820;-68
2022/04/16 06:44:10;;;;;;;;;3.75;3.25;;;;;18.29;44.93;103336.31;5068980;28;8896;-70
2022/04/16 06:46:35;;;;;;;;;7.00;5.00;;;;;18.30;45.01;103342.47;5069170;28;8803;-68
2022/04/16 06:49:01;;;;;;;;;4.00;4.00;;;;;18.29;44.89;103335.44;5068076;28;9645;-69
2022/04/16 06:51:26;;;;;;;;;5.50;4.75;;;;;18.30;45.07;103335.44;5069325;28;9519;-69
2022/04/16 06:53:52;;;;;;;;;4.00;4.00;;;;;18.29;45.00;103336.31;5068832;28;8772;-69
2022/04/16 06:56:17;;;;;;;;;5.00;5.00;;;;;18.30;44.95;103337.19;5068959;28;8819;-69
2022/04/16 06:58:42;;;;;;;;;4.75;4.00;;;;;18.30;45.03;103331.91;5068067;28;9008;-70
2022/04/16 07:01:08;;;;;;;;;4.00;4.00;;;;;18.31;45.08;103339.00;5068974;28;8772;-69
2022/04/16 07:03:34;;;;;;;;;3.75;3.00;;;;;18.30;44.89;103343.38;5069040;28;8792;-70
2022/04/16 07:05:59;;;;;;;;;2.50;2.50;;;;;18.34;44.81;103339.09;5068258;28;8830;-69
2022/04/16 07:08:25;;;;;;;;;3.75;3.75;;;;;18.32;45.15;103340.78;5068136;28;8791;-69
2022/04/16 07:10:50;;;;;;;;;4.00;3.00;;;;;18.34;45.06;103344.38;5068878;28;8786;-69
2022/04/16 07:13:15;;;;;;;;;8.00;8.00;;;;;18.33;45.08;103346.13;5067957;28;8901;-69
2022/04/16 07:15:40;;;;;;;;;4.00;4.00;;;;;18.34;45.03;103342.63;5069141;28;8807;-68
2022/04/16 07:18:07;;;;;;;;;5.00;5.00;;;;;18.34;45.19;103344.38;5067448;28;8811;-70
2022/04/16 07:20:33;;;;;;;;;6.50;4.75;;;;;18.34;45.28;103339.97;5068500;28;8802;-69
2022/04/16 07:22:59;;;;;;;;;6.00;5.00;;;;;18.35;45.52;103341.78;5068147;28;9771;-69
2022/04/16 07:25:24;;;;;;;;;4.25;4.25;;;;;18.36;45.23;103347.97;5069256;28;8819;-69
2022/04/16 07:27:49;;;;;;;;;4.00;4.00;;;;;18.35;45.43;103346.16;5067021;28;9379;-69
2022/04/16 07:30:14;;;;;;;;;4.50;4.50;;;;;18.37;45.48;103343.59;5068871;28;8764;-69
2022/04/16 07:32:40;;;;;;;;;5.00;5.00;;;;;18.37;45.47;103346.22;5068995;28;8796;-68
2022/04/16 07:35:06;;;;;;;;;8.00;8.00;;;;;18.40;45.52;103346.31;5067978;28;8884;-69
2022/04/16 07:37:32;;;;;;;;;8.75;6.00;;;;;18.40;45.66;103349.84;5068039;28;8795;-68
2022/04/16 07:39:57;;;;;;;;;7.00;5.75;;;;;18.41;45.72;103340.19;5068260;28;9754;-69
2022/04/16 07:42:30;;;;;;;;;4.50;4.00;;;;;18.42;45.77;103347.25;5067613;28;8799;-69
2022/04/16 07:44:55;;;;;;;;;5.25;5.25;;;;;18.41;45.66;103337.53;5068561;28;8937;-68
2022/04/16 07:47:20;;;;;;;;;5.50;5.50;;;;;18.45;45.41;103350.88;5068774;28;9681;-69
2022/04/16 07:49:46;;;;;;;;;6.50;6.50;;;;;18.44;45.51;103356.13;5066707;28;8800;-69
2022/04/16 07:52:14;;;;;;;;;6.25;5.00;;;;;18.45;45.59;103350.88;5068490;28;8803;-68
2022/04/16 07:54:39;;;;;;;;;5.50;5.50;;;;;18.46;45.83;103357.06;5068251;28;8799;-68
2022/04/16 07:57:08;;;;;;;;;6.00;6.00;;;;;18.45;45.88;103353.50;5068073;28;9710;-68
2022/04/16 07:59:34;;;;;;;;;5.50;3.75;;;;;18.48;46.07;103350.97;5067520;28;8780;-69
2022/04/16 08:01:59;;;;;;;;;4.25;4.25;;;;;18.49;45.81;103352.75;5068220;28;9558;-69
2022/04/16 08:04:24;;;;;;;;;4.25;4.25;;;;;18.50;46.00;103351.00;5068196;28;8937;-70
2022/04/16 08:06:50;;;;;;;;;7.75;4.00;;;;;18.51;45.93;103352.81;5067953;28;8805;-69
2022/04/16 08:09:16;;;;;;;;;7.75;7.75;;;;;18.51;46.06;103352.81;5069577;28;8784;-69
2022/04/16 08:11:42;;;;;;;;;5.00;5.00;;;;;18.51;46.16;103348.47;5072671;28;9758;-69
2022/04/16 08:14:07;;;;;;;;;3.00;3.00;;;;;18.62;46.74;103359.34;5071810;28;8836;-69
2022/04/16 08:16:32;;;;;;;;;8.50;7.00;;;;;18.64;46.23;103353.22;5070998;28;9640;-69
2022/04/16 08:18:58;;;;;;;;;6.50;5.00;;;;;18.62;46.56;103352.31;5070821;28;8826;-68
2022/04/16 08:21:25;;;;;;;;;5.00;5.00;;;;;18.59;46.83;103352.22;5072118;28;8783;-69
2022/04/16 08:23:56;;;;;;;;;4.50;4.50;;;;;18.58;47.36;103349.53;5071020;28;8791;-69
2022/04/16 08:26:23;;;;;;;;;6.50;6.50;;;;;18.61;47.11;103355.78;5071792;28;9770;-69
2022/04/16 08:28:48;;;;;;;;;9.00;8.00;;;;;18.63;47.35;103355.84;5070270;28;9676;-69
2022/04/16 08:31:13;;;;;;;;;4.75;4.75;;;;;18.64;47.33;103352.31;5071090;28;9698;-69
2022/04/16 08:33:39;;;;;;;;;3.50;3.50;;;;;18.65;47.33;103356.78;5071633;28;8808;-68
2022/04/16 08:36:04;;;;;;;;;5.00;5.00;;;;;18.66;47.49;103350.66;5071186;28;8810;-68
2022/04/16 08:38:29;;;;;;;;;6.00;6.00;;;;;18.67;47.16;103349.78;5069639;28;8820;-69
2022/04/16 08:40:56;;;;;;;;;5.25;4.25;;;;;18.68;47.29;103352.47;5071509;28;8780;-69
2022/04/16 08:43:21;;;;;;;;;5.00;5.00;;;;;18.69;47.39;103358.66;5072141;28;8873;-68
2022/04/16 08:45:49;;;;;;;;;5.75;4.50;;;;;18.68;47.79;103355.13;5070492;28;9633;-67
2022/04/16 08:48:14;;;;;;;;;10.00;8.25;;;;;18.86;54.09;103365.31;5070418;28;8770;-70
2022/04/16 08:50:40;;;;;;;;;7.50;6.00;;;;;18.95;49.83;103357.63;5072401;28;9764;-70
2022/04/16 08:53:06;;;;;;;;;9.75;8.50;;;;;19.12;55.49;103366.03;5071284;28;9505;-69
2022/04/16 08:55:31;;;;;;;;;11.00;7.25;;;;;19.19;52.10;103360.06;5071992;28;8801;-67
2022/04/16 08:57:57;;;;;;;;;8.00;7.50;;;;;19.32;52.34;103359.50;5072266;28;8904;-69
2022/04/16 09:00:22;;;;;;;;;5.50;5.00;;;;;19.42;54.27;103361.53;5071602;28;8770;-69
2022/04/16 09:02:56;;;;;;;;;9.00;9.00;;;;;19.53;59.39;103361.84;5071620;28;8770;-69
2022/04/16 09:05:23;;;;;;;;;11.50;10.00;;;;;19.63;59.53;103359.44;5071544;28;8821;-68
2022/04/16 09:07:52;;;;;;;;;7.50;7.50;;;;;19.68;59.83;103359.56;5071114;28;9783;-68
2022/04/16 09:10:18;;;;;;;;;8.25;6.25;;;;;19.62;63.19;103365.59;5071682;28;9771;-69
2022/04/16 09:12:45;;;;;;;;;11.00;11.00;;;;;19.64;62.72;103358.59;5071025;28;9707;-69
2022/04/16 09:15:12;;;;;;;;;11.50;11.00;;;;;19.60;62.24;103354.09;5071345;28;8796;-69
2022/04/16 09:17:39;;;;;;;;;21.75;21.50;;;;;19.57;57.84;103364.56;5057029;28;10090;-68
2022/04/16 09:20:10;;;;;;;;;10.00;10.00;;;;;19.49;59.29;103357.31;5049243;28;10152;-70
2022/04/16 09:22:38;;;;;;;;;21.00;19.75;;;;;19.44;55.95;103361.59;5051416;28;10003;-69
2022/04/16 09:25:12;;;;;;;;;15.25;14.50;;;;;19.34;52.97;103360.44;5051122;28;10144;-69
2022/04/16 09:27:43;;;;;;;;;21.00;17.00;;;;;19.26;50.42;103362.91;5050930;28;9972;-69
2022/04/16 09:30:09;;;;;;;;;17.75;17.25;;;;;19.19;49.51;103362.69;5051274;28;10215;-69
2022/04/16 09:32:47;;;;;;;;;17.00;17.00;;;;;19.17;50.59;103360.00;5051006;28;10159;-70
2022/04/16 09:35:41;;;;;;;;;17.50;17.50;;;;;19.18;49.19;103360.91;5051005;28;10072;-69
2022/04/16 09:38:07;;;;;;;;;16.75;16.75;;;;;19.19;48.62;103360.06;5041625;28;10763;-70
2022/04/16 09:40:36;;;;;;;;;14.75;14.25;;;;;19.19;49.67;103353.00;5050554;28;10155;-70
2022/04/16 09:43:04;;;;;;;;;22.25;20.75;;;;;19.19;48.31;103358.31;5050691;28;8785;-70
2022/04/16 09:45:30;;;;;;;;;17.25;13.50;;;;;19.17;48.09;103359.09;5050935;28;11017;-70
2022/04/16 09:47:57;;;;;;;;;20.00;19.75;;;;;19.16;46.62;103355.53;5050195;28;10058;-69
2022/04/16 09:50:24;;;;;;;;;21.50;17.50;;;;;19.19;48.43;103352.09;5050821;28;10288;-70
2022/04/16 09:52:55;;;;;;;;;19.75;19.75;;;;;19.18;46.59;103348.56;5050320;28;10048;-69
2022/04/16 09:55:23;;;;;;;;;15.00;13.00;;;;;19.22;47.81;103346.88;5050287;28;10317;-69
2022/04/16 09:58:02;;;;;;;;;19.00;15.50;;;;;19.22;46.99;103350.44;5050173;28;10070;-70
2022/04/16 10:00:29;;;;;;;;;14.75;13.00;;;;;19.24;45.83;103350.44;5050845;28;10313;-69
2022/04/16 10:02:55;;;;;;;;;13.00;13.00;;;;;19.21;47.35;103347.72;5050285;28;9991;-69
2022/04/16 10:05:22;;;;;;;;;15.50;15.25;;;;;19.26;46.71;103343.47;5050550;28;9986;-70
2022/04/16 10:07:48;;;;;;;;;18.25;15.50;;;;;19.19;45.38;103345.06;5046756;28;9851;-68
2022/04/16 10:10:25;;;;;;;;;18.75;17.25;;;;;19.29;46.12;103346.19;5049095;28;10065;-68
2022/04/16 10:13:05;;;;;;;;;10.75;10.50;;;;;19.31;46.06;103352.41;5050006;28;8792;-69
2022/04/16 10:15:59;;;;;;;;;17.25;15.50;;;;;19.34;45.42;103356.91;5050417;28;9890;-69
2022/04/16 10:18:25;;;;;;;;;19.25;16.25;;;;;19.34;45.70;103344.56;5039382;28;9890;-69
2022/04/16 10:20:56;;;;;;;;;14.00;13.00;;;;;19.38;44.95;103346.44;5049935;28;10044;-69
2022/04/16 10:23:37;;;;;;;;;11.25;11.25;;;;;19.36;45.34;103345.47;5049731;28;9924;-70
2022/04/16 10:26:11;;;;;;;;;9.00;9.00;;;;;19.39;45.09;103336.69;5049403;28;9741;-70
2022/04/16 10:28:51;;;;;;;;;13.25;12.25;;;;;19.45;44.94;103344.84;5048295;28;10561;-69
2022/04/16 10:31:21;;;;;;;;;12.00;12.00;;;;;19.48;45.02;103345.81;5049497;28;9894;-69
2022/04/16 10:34:13;;;;;;;;;9.50;9.50;;;;;19.44;43.97;103338.66;5049693;28;9812;-70
2022/04/16 10:36:51;;;;;;;;;10.00;10.00;;;;;19.46;43.76;103342.22;5047130;28;9713;-70
2022/04/16 10:39:19;;;;;;;;;13.50;11.50;;;;;19.51;43.31;103343.25;5046174;28;9909;-69
2022/04/16 10:41:57;;;;;;;;;12.00;12.00;;;;;19.60;44.11;103339.94;5050038;28;9886;-69
2022/04/16 10:44:24;;;;;;;;;11.00;11.00;;;;;19.61;43.87;103349.66;5049350;28;10523;-69
2022/04/16 10:46:52;;;;;;;;;15.00;12.50;;;;;19.62;43.13;103335.53;5049292;28;9792;-69
2022/04/16 10:49:19;;;;;;;;;13.50;11.75;;;;;19.61;43.18;103331.09;5046886;28;9960;-69
2022/04/16 10:51:45;;;;;;;;;8.50;8.50;;;;;19.67;43.51;103339.22;5049123;28;9812;-69
2022/04/16 10:54:15;;;;;;;;;12.00;12.00;;;;;19.56;42.87;103328.38;5049811;28;9781;-70
2022/04/16 10:56:51;;;;;;;;;11.25;10.25;;;;;19.70;43.55;103328.69;5049783;28;9981;-69
2022/04/16 10:59:17;;;;;;;;;6.50;6.50;;;;;19.79;43.37;103324.47;5047398;28;9734;-69
2022/04/16 11:01:52;;;;;;;;;6.75;6.75;;;;;19.80;43.20;103330.69;5049493;28;9621;-69
2022/04/16 11:04:17;;;;;;;;;11.25;11.25;;;;;19.76;43.05;103327.06;5049814;28;8765;-69
2022/04/16 11:06:45;;;;;;;;;11.00;11.00;;;;;19.74;42.78;103331.44;5048992;28;9565;-70
2022/04/16 11:09:18;;;;;;;;;6.25;6.25;;;;;19.73;43.38;103331.41;5046221;28;8788;-69
2022/04/16 11:11:43;;;;;;;;;13.00;12.00;;;;;19.75;43.09;103332.34;5049444;28;10315;-69
2022/04/16 11:14:12;;;;;;;;;10.00;8.75;;;;;19.68;43.16;103331.28;5049134;28;9784;-69
2022/04/16 11:16:45;;;;;;;;;8.25;7.75;;;;;19.68;43.16;103327.75;5049453;28;8832;-69
2022/04/16 11:19:12;;;;;;;;;11.75;10.50;;;;;19.67;43.28;103329.50;5046894;28;9787;-70
2022/04/16 11:21:38;;;;;;;;;7.00;7.00;;;;;19.69;42.94;103322.47;5049569;28;9792;-69
2022/04/16 11:24:05;;;;;;;;;8.00;8.00;;;;;19.65;43.10;103325.00;5049416;28;9702;-69
2022/04/16 11:34:51;;;;;;;;;10.00;9.75;;;;;19.59;42.80;103311.63;5048931;28;9608;-69
2022/04/16 11:37:16;;;;;;;;;7.75;6.75;;;;;19.57;43.20;103310.72;5049397;28;9695;-69
2022/04/16 11:39:42;;;;;;;;;9.75;6.25;;;;;19.57;43.25;103308.94;5048167;28;9651;-70
2022/04/16 11:42:07;;;;;;;;;9.25;9.00;;;;;19.62;43.21;103302.00;5048556;28;8838;-69
2022/04/16 11:44:41;;;;;;;;;8.50;7.75;;;;;19.60;43.04;103297.53;5052679;28;8857;-69
2022/04/16 11:47:18;;;;;;;;;9.50;8.50;;;;;19.62;43.04;103298.44;5052910;28;8762;-69
2022/04/16 11:49:52;;;;;;;;;6.00;5.00;;;;;19.60;42.81;103294.88;5051022;28;9657;-69